Time;durP1;ratioP1;P1;durP2;ratioP2;P2;SDS_P1;SDS_P2;PMS_P1;PMS_P2;Temp;Humidity;BMP_temperature;BMP_pressure;BME280_temperature;BME280_humidity;BME280_pressure;Samples;Min_cycle;Max_cycle;Signal;HPM_P1;HPM_P2
2022/02/02 00:00:40;;;;;;;1999.90;999.90;;;;;;;1.47;100.00;162789.03;5011957;28;20077;-70
2022/02/02 00:03:12;;;;;;;1999.90;999.90;;;;;;;1.54;100.00;162808.19;5022588;28;20061;-70
2022/02/02 00:08:24;;;;;;;1999.90;999.90;;;;;;;1.47;100.00;162790.38;5019888;28;20072;-70
2022/02/02 00:11:29;;;;;;;1999.90;999.90;;;;;;;1.66;100.00;162841.03;5019866;28;20382;-70
2022/02/02 00:18:54;;;;;;;1999.90;999.90;;;;;;;1.89;100.00;162901.25;5019899;28;20046;-70
2022/02/02 00:23:58;;;;;;;1999.90;999.90;;;;;;;1.75;100.00;162865.66;5024994;28;20334;-71
2022/02/02 00:26:32;;;;;;;1999.90;999.90;;;;;;;1.72;100.00;162857.47;5022315;28;20103;-71
2022/02/02 00:29:05;;;;;;;1999.90;999.90;;;;;;;2.15;100.00;162969.75;5010384;28;20045;-71
2022/02/02 00:31:42;;;;;;;1999.90;999.90;;;;;;;1.86;100.00;162893.06;5010995;28;20093;-71
2022/02/02 00:34:14;;;;;;;1999.90;999.90;;;;;;;1.80;100.00;162876.63;5011275;28;20046;-71
2022/02/02 00:36:48;;;;;;;1999.90;999.90;;;;;;;1.71;100.00;162854.75;5009783;28;20061;-71
2022/02/02 00:39:15;;;;;;;1999.90;999.90;;;;;;;1.99;100.00;162928.66;5010871;28;20185;-71
2022/02/02 00:41:42;;;;;;;1999.90;999.90;;;;;;;2.02;100.00;162935.50;5021391;28;20073;-71
2022/02/02 00:44:09;;;;;;;1999.90;999.90;;;;;;;1.91;100.00;162908.13;5011156;28;20054;-71
2022/02/02 00:46:36;;;;;;;1999.90;999.90;;;;;;;2.22;100.00;162988.88;5018842;28;20575;-72
2022/02/02 00:49:04;;;;;;;1999.90;999.90;;;;;;;2.11;100.00;162961.53;5018908;28;20045;-71
2022/02/02 00:51:44;;;;;;;1999.90;999.90;;;;;;;1.90;100.00;162904.00;5023055;28;20073;-71
2022/02/02 00:54:13;;;;;;;1999.90;999.90;;;;;;;2.03;100.00;162939.59;5009985;28;20068;-71
2022/02/02 00:56:40;;;;;;;1999.90;999.90;;;;;;;1.65;100.00;162836.94;5018515;28;20123;-70
2022/02/02 00:59:07;;;;;;;1999.90;999.90;;;;;;;1.59;100.00;162821.88;5023001;28;20107;-68
2022/02/02 01:01:33;;;;;;;1999.90;999.90;;;;;;;1.42;100.00;162775.38;5024241;28;20045;-69
2022/02/02 01:04:00;;;;;;;1999.90;999.90;;;;;;;1.29;100.00;162742.50;5021163;28;20052;-69
2022/02/02 01:06:29;;;;;;;1999.90;999.90;;;;;;;1.35;100.00;162758.91;5011715;28;20104;-70
2022/02/02 01:19:55;;;;;;;1999.90;999.90;;;;;;;1.75;100.00;162865.66;5014956;28;20094;-70
2022/02/02 01:27:44;;;;;;;1999.90;999.90;;;;;;;1.83;100.00;162886.25;5010498;28;20081;-70
2022/02/02 01:27:53;;;;;;;1999.90;999.90;;;;;;;1.56;100.00;162813.66;5013014;28;20499;-69
2022/02/02 01:30:22;;;;;;;1999.90;999.90;;;;;;;1.70;100.00;162852.00;5025612;28;20455;-69
2022/02/02 01:32:49;;;;;;;1999.90;999.90;;;;;;;1.60;100.00;162824.63;5009227;28;20054;-68
2022/02/02 01:35:17;;;;;;;1999.90;999.90;;;;;;;1.73;100.00;162858.88;5010862;28;20050;-68
2022/02/02 01:37:46;;;;;;;1999.90;999.90;;;;;;;1.63;100.00;162832.81;5010361;28;20050;-72
2022/02/02 01:42:59;;;;;;;1999.90;999.90;;;;;;;1.64;100.00;162834.19;5011155;28;20496;-70
2022/02/02 01:45:39;;;;;;;1999.90;999.90;;;;;;;1.71;100.00;162854.75;5011309;28;20100;-70
2022/02/02 01:48:30;;;;;;;1999.90;999.90;;;;;;;1.73;100.00;162860.22;5010581;28;20049;-70
2022/02/02 01:56:41;;;;;;;1999.90;999.90;;;;;;;1.82;100.00;162882.13;5024713;28;20307;-69
2022/02/02 02:01:53;;;;;;;1999.90;999.90;;;;;;;1.92;100.00;162909.47;5015273;28;20520;-69
2022/02/02 02:04:19;;;;;;;1999.90;999.90;;;;;;;2.10;100.00;162957.44;5013327;28;20050;-68
2022/02/02 02:06:46;;;;;;;1999.90;999.90;;;;;;;1.82;100.00;162882.13;5016678;28;20053;-68
2022/02/02 02:09:12;;;;;;;1999.90;999.90;;;;;;;1.91;100.00;162906.78;5019538;28;20045;-68
2022/02/02 02:11:43;;;;;;;1999.90;999.90;;;;;;;1.90;100.00;162904.00;5030152;28;20127;-68
2022/02/02 02:14:38;;;;;;;1999.90;999.90;;;;;;;1.99;100.00;162928.66;5016903;28;20057;-68
2022/02/02 02:16:59;;;;;;;1999.90;999.90;;;;;;;2.19;100.00;162980.66;5025900;28;20103;-68
2022/02/02 02:19:25;;;;;;;1999.90;999.90;;;;;;;2.20;100.00;162983.41;5015650;28;20092;-69
2022/02/02 02:21:53;;;;;;;1999.90;999.90;;;;;;;2.13;100.00;162965.66;5016410;28;20099;-69
2022/02/02 02:24:20;;;;;;;1999.90;999.90;;;;;;;1.87;100.00;162897.16;5027048;28;20049;-69
2022/02/02 02:26:47;;;;;;;1999.90;999.90;;;;;;;1.84;100.00;162887.59;5031895;28;20095;-68
2022/02/02 02:32:21;;;;;;;1999.90;999.90;;;;;;;1.83;100.00;162884.84;5013856;28;20355;-68
2022/02/02 02:39:43;;;;;;;1999.90;999.90;;;;;;;2.04;100.00;162940.97;5013750;28;20049;-68
2022/02/02 02:55:58;;;;;;;1999.90;999.90;;;;;;;2.58;100.00;163084.78;5026621;28;20053;-67
2022/02/02 03:29:50;;;;;;;1999.90;999.90;;;;;;;2.57;100.00;163082.03;5012038;28;20108;-67
2022/02/02 03:58:30;;;;;;;1999.90;999.90;;;;;;;2.70;100.00;163116.28;5009020;28;20042;-68
2022/02/02 04:06:28;;;;;;;1999.90;999.90;;;;;;;3.05;100.00;163209.44;5019106;28;20054;-68
2022/02/02 04:08:54;;;;;;;1999.90;999.90;;;;;;;3.12;100.00;163228.63;5024116;28;20439;-68
2022/02/02 04:11:38;;;;;;;1999.90;999.90;;;;;;;3.07;100.00;163216.28;5012239;28;20054;-69
2022/02/02 04:39:10;;;;;;;1999.90;999.90;;;;;;;3.27;100.00;163268.38;5010747;28;20115;-67
2022/02/02 04:55:30;;;;;;;1999.90;999.90;;;;;;;2.57;100.00;163083.38;5012668;28;20453;-67
2022/02/02 04:58:08;;;;;;;1999.90;999.90;;;;;;;2.75;100.00;163129.97;5019220;28;20049;-67
2022/02/02 05:03:42;;;;;;;1999.90;999.90;;;;;;;2.76;100.00;163132.72;5025723;28;20050;-67
2022/02/02 05:09:25;;;;;;;1999.90;999.90;;;;;;;2.81;100.00;163146.41;5006935;28;20115;-67
2022/02/02 05:26:38;;;;;;;1999.90;999.90;;;;;;;3.12;100.00;163229.97;4987338;28;20107;-67
2022/02/02 05:40:51;;;;;;;1999.90;999.90;;;;;;;3.28;100.00;163271.13;5009550;28;20099;-67
2022/02/02 05:52:56;;;;;;;1999.90;999.90;;;;;;;3.07;100.00;163216.28;5020198;28;20484;-67
2022/02/02 05:55:22;;;;;;;1999.90;999.90;;;;;;;3.22;100.00;163254.69;5017906;28;20057;-67
2022/02/02 05:57:49;;;;;;;1999.90;999.90;;;;;;;3.18;100.00;163246.41;5016385;28;20120;-67
2022/02/02 06:00:16;;;;;;;1999.90;999.90;;;;;;;3.12;100.00;163229.97;5025306;28;20049;-67
2022/02/02 06:02:46;;;;;;;1999.90;999.90;;;;;;;3.20;100.00;163249.16;5013295;28;20470;-67
2022/02/02 06:05:13;;;;;;;1999.90;999.90;;;;;;;3.52;100.00;163336.88;5025840;28;20095;-67
2022/02/02 06:07:42;;;;;;;1999.90;999.90;;;;;;;3.61;100.00;163358.81;5023579;28;20050;-67
2022/02/02 06:10:14;;;;;;;1999.90;999.90;;;;;;;3.52;100.00;163336.88;5021078;28;20049;-67
2022/02/02 06:12:42;;;;;;;1999.90;999.90;;;;;;;3.68;100.00;163378.03;5015897;28;20046;-67
2022/02/02 06:15:12;;;;;;;1999.90;999.90;;;;;;;3.35;100.00;163290.31;5014037;28;20412;-67
2022/02/02 06:17:47;;;;;;;1999.90;999.90;;;;;;;3.23;100.00;163257.38;5022161;28;20053;-67
2022/02/02 06:20:13;;;;;;;1999.90;999.90;;;;;;;3.44;100.00;163313.56;5021101;28;20037;-67
2022/02/02 06:22:52;;;;;;;1999.90;999.90;;;;;;;3.66;100.00;163373.91;5020594;28;20050;-67
2022/02/02 06:25:29;;;;;;;1999.90;999.90;;;;;;;3.45;100.00;163316.31;5016636;28;20107;-67
2022/02/02 06:28:06;;;;;;;1999.90;999.90;;;;;;;3.06;100.00;163213.53;5014740;28;20513;-67
2022/02/02 06:30:34;;;;;;;1999.90;999.90;;;;;;;3.18;100.00;163245.06;5011729;28;20073;-67
2022/02/02 06:33:05;;;;;;;1999.90;999.90;;;;;;;2.95;100.00;163183.44;5020036;28;20414;-67
2022/02/02 06:35:32;;;;;;;1999.90;999.90;;;;;;;3.25;100.00;163262.91;5017604;28;20046;-67
2022/02/02 06:37:59;;;;;;;1999.90;999.90;;;;;;;3.10;100.00;163224.50;5019246;28;20084;-67
2022/02/02 06:40:33;;;;;;;1999.90;999.90;;;;;;;3.08;100.00;163217.66;5019509;28;20058;-67
2022/02/02 06:43:03;;;;;;;1999.90;999.90;;;;;;;3.41;100.00;163306.75;5016410;28;20111;-67
2022/02/02 06:45:29;;;;;;;1999.90;999.90;;;;;;;3.25;100.00;163262.91;5014028;28;20269;-67
2022/02/02 06:47:55;;;;;;;1999.90;999.90;;;;;;;3.45;100.00;163316.31;5018687;28;20049;-67
2022/02/02 06:50:27;;;;;;;1999.90;999.90;;;;;;;3.31;100.00;163279.34;5015706;28;20038;-67
2022/02/02 06:55:59;;;;;;;1999.90;999.90;;;;;;;3.15;100.00;163236.84;5017473;28;20328;-67
2022/02/02 06:58:53;;;;;;;1999.90;999.90;;;;;;;3.30;100.00;163276.56;5017450;28;20341;-67
2022/02/02 07:04:35;;;;;;;1999.90;999.90;;;;;;;3.62;100.00;163362.94;5029302;28;20061;-67
2022/02/02 07:07:21;;;;;;;1999.90;999.90;;;;;;;3.75;100.00;163395.81;5016129;28;20057;-67
2022/02/02 07:10:09;;;;;;;1999.90;999.90;;;;;;;3.41;100.00;163306.75;5028331;28;20524;-67
2022/02/02 07:13:07;;;;;;;1999.90;999.90;;;;;;;3.50;100.00;163330.06;5017241;28;20426;-67
2022/02/02 07:16:11;;;;;;;1999.90;999.90;;;;;;;3.68;100.00;163378.03;5027722;28;20061;-67
2022/02/02 07:27:09;;;;;;;1999.90;999.90;;;;;;;3.71;100.00;163386.25;5013187;28;20061;-68
2022/02/02 07:34:41;;;;;;;1999.90;999.90;;;;;;;3.94;100.00;163446.56;5015835;28;20239;-68
2022/02/02 07:37:13;;;;;;;1999.90;999.90;;;;;;;3.96;100.00;163452.03;5018892;28;20050;-67
2022/02/02 07:39:42;;;;;;;1999.90;999.90;;;;;;;3.74;100.00;163394.47;5014441;28;20442;-67
2022/02/02 07:42:09;;;;;;;1999.90;999.90;;;;;;;3.86;100.00;163427.34;5011883;28;20062;-68
2022/02/02 07:44:39;;;;;;;1999.90;999.90;;;;;;;3.95;100.00;163449.31;5011876;28;20073;-67
2022/02/02 07:47:09;;;;;;;1999.90;999.90;;;;;;;4.25;100.00;163530.19;5014100;28;20054;-68
2022/02/02 07:49:43;;;;;;;1999.90;999.90;;;;;;;4.16;100.00;163506.88;5015340;28;20049;-67
2022/02/02 07:52:12;;;;;;;1999.90;999.90;;;;;;;3.93;100.00;163443.81;5015366;28;20049;-67
2022/02/02 07:54:41;;;;;;;1999.90;999.90;;;;;;;4.06;100.00;163479.44;5023781;28;20123;-69
2022/02/02 07:57:25;;;;;;;1999.90;999.90;;;;;;;4.05;100.00;163478.09;5012978;28;20335;-68
2022/02/02 07:59:57;;;;;;;1999.90;999.90;;;;;;;3.92;100.00;163441.09;5015007;28;20457;-68
2022/02/02 08:02:58;;;;;;;1999.90;999.90;;;;;;;3.93;100.00;163445.22;5016868;28;20046;-68
2022/02/02 08:05:14;;;;;;;1999.90;999.90;;;;;;;3.80;100.00;163410.91;5022766;28;20107;-68
2022/02/02 08:08:11;;;;;;;1999.90;999.90;;;;;;;3.69;100.00;163382.13;5024622;28;20128;-67
2022/02/02 08:10:30;;;;;;;1999.90;999.90;;;;;;;4.10;100.00;163490.44;5013613;28;20049;-68
2022/02/02 08:13:01;;;;;;;1999.90;999.90;;;;;;;4.08;100.00;163483.56;5013083;28;20046;-68
2022/02/02 08:15:31;;;;;;;1999.90;999.90;;;;;;;4.10;100.00;163489.06;5011952;28;20397;-69
2022/02/02 08:17:58;;;;;;;1999.90;999.90;;;;;;;3.59;100.00;163353.31;5023270;28;20107;-69
2022/02/02 08:20:25;;;;;;;1999.90;999.90;;;;;;;3.95;100.00;163449.31;5017415;28;20098;-68
2022/02/02 08:22:53;;;;;;;1999.90;999.90;;;;;;;4.20;100.00;163517.84;5017387;28;20084;-68
2022/02/02 08:25:30;;;;;;;1999.90;999.90;;;;;;;4.01;100.00;163465.75;5015570;28;20053;-68
2022/02/02 08:28:00;;;;;;;1999.90;999.90;;;;;;;4.21;100.00;163519.22;5018771;28;20496;-68
2022/02/02 08:30:29;;;;;;;1999.90;999.90;;;;;;;4.33;99.93;163550.75;5018953;28;20100;-68
2022/02/02 08:32:57;;;;;;;1999.90;999.90;;;;;;;4.20;99.94;163517.84;5015002;28;20100;-68
2022/02/02 08:35:28;;;;;;;1999.90;999.90;;;;;;;4.20;100.00;163517.84;5008183;28;20049;-68
2022/02/02 08:43:14;;;;;;;1999.90;999.90;;;;;;;4.31;100.00;163545.28;5013559;28;20056;-68
2022/02/02 08:45:44;;;;;;;;;;;;;;;4.14;99.11;163501.41;5020962;28;20045;-68
2022/02/02 08:48:16;;;;;;;1999.90;999.90;;;;;;;4.15;99.56;163502.75;5018698;28;20263;-68
2022/02/02 08:50:50;;;;;;;1999.90;999.90;;;;;;;4.23;98.83;163526.09;5015114;28;20102;-68
2022/02/02 08:53:32;;;;;;;1999.90;999.90;;;;;;;4.51;98.51;163600.16;5018336;28;20054;-68
2022/02/02 08:56:12;;;;;;;1999.90;999.90;;;;;;;4.26;98.59;163531.53;5010379;28;20435;-69
2022/02/02 09:01:10;;;;;;;1999.90;999.90;;;;;;;4.43;98.16;163578.19;5021398;28;20154;-68
2022/02/02 09:06:21;;;;;;;1999.90;999.90;;;;;;;4.15;99.13;163502.75;5009453;28;19925;-69
2022/02/02 09:08:50;;;;;;;1999.90;999.90;;;;;;;4.30;98.62;163542.53;5016656;28;20451;-68
2022/02/02 09:23:24;;;;;;;1999.90;999.90;;;;;;;4.37;97.38;163561.75;5013931;28;20072;-68
2022/02/02 09:25:17;;;;;;;1999.90;999.90;;;;;;;4.48;96.95;163591.94;5016763;28;20090;-68
2022/02/02 09:33:44;;;;;;;1999.90;999.90;;;;;;;4.35;97.96;163557.63;5014563;28;20435;-68
2022/02/02 09:36:04;;;;;;;1999.90;999.90;;;;;;;4.34;98.91;163554.88;5015887;28;20053;-68
2022/02/02 09:38:31;;;;;;;1999.90;999.90;;;;;;;4.59;98.18;163620.72;5016970;28;20328;-68
2022/02/02 09:41:29;;;;;;;1999.90;999.90;;;;;;;4.58;98.49;163617.97;5016669;28;20061;-68
2022/02/02 09:43:49;;;;;;;1999.90;999.90;;;;;;;4.57;98.53;163616.59;5012839;28;20061;-68
2022/02/02 09:46:20;;;;;;;1999.90;999.90;;;;;;;4.47;100.00;163587.81;5024505;28;20049;-68
2022/02/02 09:48:51;;;;;;;1999.90;999.90;;;;;;;4.35;100.00;163557.63;5019572;28;20058;-69
2022/02/02 09:51:29;;;;;;;;;;;;;;;4.19;100.00;163515.09;5011122;28;20506;-69
2022/02/02 09:54:04;;;;;;;1999.90;999.90;;;;;;;3.93;100.00;163445.22;5010988;28;19921;-68
2022/02/02 09:59:54;;;;;;;1999.90;999.90;;;;;;;4.07;100.00;163482.22;5017660;28;20096;-68
2022/02/02 10:13:16;;;;;;;1999.90;999.90;;;;;;;4.14;100.00;163500.00;5022538;28;20428;-68
2022/02/02 10:15:56;;;;;;;1999.90;999.90;;;;;;;4.15;100.00;163502.75;5010150;28;20060;-68
2022/02/02 10:18:31;;;;;;;1999.90;999.90;;;;;;;4.07;100.00;163480.84;5022972;28;20438;-69
2022/02/02 10:20:59;;;;;;;1999.90;999.90;;;;;;;4.41;100.00;163572.72;5021002;28;20123;-68
2022/02/02 10:23:27;;;;;;;1999.90;999.90;;;;;;;4.35;100.00;163556.28;5017747;28;20061;-68
2022/02/02 10:25:58;;;;;;;1999.90;999.90;;;;;;;4.23;100.00;163526.09;5022042;28;20119;-68
2022/02/02 10:28:30;;;;;;;1999.90;999.90;;;;;;;4.37;100.00;163563.09;5021070;28;20080;-68
2022/02/02 10:31:04;;;;;;;1999.90;999.90;;;;;;;4.27;100.00;163535.66;5016970;28;20393;-68
2022/02/02 10:33:32;;;;;;;1999.90;999.90;;;;;;;4.20;100.00;163517.84;5014868;28;20454;-68
2022/02/02 10:36:14;;;;;;;1999.90;999.90;;;;;;;4.37;100.00;163563.09;5024660;28;20115;-68
2022/02/02 10:38:48;;;;;;;1999.90;999.90;;;;;;;4.49;99.74;163594.66;5026233;28;20041;-69
2022/02/02 10:41:33;;;;;;;1999.90;999.90;;;;;;;4.34;100.00;163554.88;5026220;28;20382;-69
2022/02/02 10:44:34;;;;;;;1999.90;999.90;;;;;;;4.49;99.96;163594.66;5026590;28;20132;-69
2022/02/02 10:47:20;;;;;;;1999.90;999.90;;;;;;;4.85;98.21;163690.66;5018801;28;20989;-69
2022/02/02 10:52:36;;;;;;;1999.90;999.90;;;;;;;4.67;97.69;163642.66;5021171;28;20500;-69
2022/02/02 10:58:01;;;;;;;1999.90;999.90;;;;;;;4.62;98.19;163628.94;5024563;28;20142;-69
2022/02/02 11:00:51;;;;;;;1999.90;999.90;;;;;;;4.53;98.37;163605.63;5016127;28;20049;-69
2022/02/02 11:08:51;;;;;;;1999.90;999.90;;;;;;;4.53;99.06;163604.28;5019335;28;20080;-69
2022/02/02 11:11:18;;;;;;;1999.90;999.90;;;;;;;4.55;98.47;163611.09;5025670;28;20464;-69
2022/02/02 11:13:57;;;;;;;1999.90;999.90;;;;;;;4.30;99.54;163542.53;5020250;28;20046;-68
2022/02/02 11:16:29;;;;;;;1999.90;999.90;;;;;;;4.93;98.36;163712.63;5015401;28;20076;-68
2022/02/02 11:18:59;;;;;;;1999.90;999.90;;;;;;;4.60;99.97;163623.47;5009758;28;20141;-69
2022/02/02 11:21:34;;;;;;;1999.90;999.90;;;;;;;3.76;100.00;163399.94;5018020;28;20378;-69
2022/02/02 11:24:20;;;;;;;1999.90;999.90;;;;;;;3.86;100.00;163426.00;5013845;28;20491;-69
2022/02/02 11:26:49;;;;;;;1999.90;999.90;;;;;;;3.99;100.00;163460.25;5011784;28;20058;-70
2022/02/02 11:29:42;;;;;;;1999.90;999.90;;;;;;;3.96;100.00;163453.44;5020623;28;20053;-69
2022/02/02 11:32:11;;;;;;;1999.90;999.90;;;;;;;4.10;100.00;163489.06;5021927;28;20046;-69
2022/02/02 11:34:40;;;;;;;1999.90;999.90;;;;;;;4.19;100.00;163515.09;5012147;28;20057;-69
2022/02/02 11:37:09;;;;;;;1999.90;999.90;;;;;;;4.64;100.00;163633.06;5023317;28;20057;-69
2022/02/02 11:40:12;;;;;;;1999.90;999.90;;;;;;;4.77;100.00;163668.72;5015795;28;20293;-68
2022/02/02 11:43:06;;;;;;;1999.90;999.90;;;;;;;4.86;100.00;163693.41;5012775;28;20122;-69
2022/02/02 11:45:33;;;;;;;1999.90;999.90;;;;;;;4.55;100.00;163609.75;5019847;28;20056;-69
2022/02/02 11:48:06;;;;;;;1999.90;999.90;;;;;;;4.49;100.00;163594.66;5023187;28;20050;-68
2022/02/02 11:50:53;;;;;;;1999.90;999.90;;;;;;;4.62;100.00;163627.59;5013791;28;20046;-69
2022/02/02 11:54:01;;;;;;;1999.90;999.90;;;;;;;4.75;99.50;163663.25;5019110;28;20057;-69
2022/02/02 11:56:30;;;;;;;1999.90;999.90;;;;;;;4.89;98.15;163701.63;4984753;28;20050;-69
2022/02/02 11:58:58;;;;;;;1999.90;999.90;;;;;;;4.89;95.99;163701.63;4983342;28;20399;-69
2022/02/02 12:01:43;;;;;;;1999.90;999.90;;;;;;;5.16;94.34;163773.00;4999689;28;20095;-69
2022/02/02 12:04:40;;;;;;;1999.90;999.90;;;;;;;5.03;93.40;163737.31;5013027;28;20050;-68
2022/02/02 12:07:09;;;;;;;1999.90;999.90;;;;;;;5.27;93.85;163801.84;5015640;28;20075;-68
2022/02/02 12:09:57;;;;;;;1999.90;999.90;;;;;;;5.66;90.55;163906.16;5012234;28;20169;-69
2022/02/02 12:45:41;;;;;;;1999.90;999.90;;;;;;;5.48;90.67;163858.09;5018798;28;20056;-67
2022/02/02 12:48:01;;;;;;;1999.90;999.90;;;;;;;5.43;91.86;163844.34;5014401;28;20049;-67
2022/02/02 12:53:33;;;;;;;1999.90;999.90;;;;;;;5.03;91.94;163738.72;5013221;28;20104;-67
2022/02/02 12:56:37;;;;;;;1999.90;999.90;;;;;;;5.41;91.91;163840.25;5014864;28;20058;-67
2022/02/02 12:59:12;;;;;;;1999.90;999.90;;;;;;;5.22;93.57;163789.44;5021177;28;20435;-67
2022/02/02 13:01:39;;;;;;;1999.90;999.90;;;;;;;5.30;92.41;163810.06;5022399;28;20056;-67
2022/02/02 13:04:08;;;;;;;1999.90;999.90;;;;;;;5.27;93.03;163801.84;5018172;28;20045;-67
2022/02/02 13:06:40;;;;;;;1999.90;999.90;;;;;;;5.13;93.23;163764.75;5013106;28;20045;-67
2022/02/02 13:09:07;;;;;;;;;;;;;;;5.18;92.57;163777.09;5025064;28;20089;-67
2022/02/02 13:11:34;;;;;;;1999.90;999.90;;;;;;;5.59;91.12;163888.28;5013778;28;20025;-67
2022/02/02 13:14:06;;;;;;;1999.90;999.90;;;;;;;5.60;90.27;163891.03;5016223;28;20056;-67
2022/02/02 13:16:33;;;;;;;1999.90;999.90;;;;;;;5.98;89.11;163992.69;5022104;28;20111;-67
2022/02/02 13:19:27;;;;;;;1999.90;999.90;;;;;;;6.06;88.71;164013.28;5026046;28;20049;-67
2022/02/02 13:22:07;;;;;;;1999.90;999.90;;;;;;;5.71;88.54;163918.50;5019093;28;20045;-67
2022/02/02 13:24:34;;;;;;;1999.90;999.90;;;;;;;5.76;88.48;163932.19;5018751;28;20451;-67
2022/02/02 13:27:16;;;;;;;1999.90;999.90;;;;;;;5.56;88.69;163880.03;5009926;28;20065;-67
2022/02/02 13:29:47;;;;;;;1999.90;999.90;;;;;;;5.45;89.68;163849.88;5023012;28;20100;-67
2022/02/02 13:35:12;;;;;;;1999.90;999.90;;;;;;;5.54;88.73;163873.16;5012195;28;19925;-67
2022/02/02 13:37:54;;;;;;;1999.90;999.90;;;;;;;4.92;92.10;163709.88;5024943;28;20107;-67
2022/02/02 13:49:11;;;;;;;1999.90;999.90;;;;;;;1.32;100.00;162750.69;5022241;28;20138;-69
2022/02/02 13:51:54;;;;;;;1999.90;999.90;;;;;;;1.10;100.00;162691.84;5020554;28;20049;-70
2022/02/02 13:54:39;;;;;;;1999.90;999.90;;;;;;;1.44;100.00;162780.81;5012174;28;20100;-70
2022/02/02 13:58:04;;;;;;;1999.90;999.90;;;;;;;1.36;100.00;162761.66;5016026;28;20045;-71
2022/02/02 14:00:49;;;;;;;1999.90;999.90;;;;;;;1.69;100.00;162849.25;5018468;28;20085;-70
2022/02/02 14:06:30;;;;;;;1999.90;999.90;;;;;;;1.74;100.00;162861.56;5015705;28;20111;-70
2022/02/02 14:33:51;;;;;;;1999.90;999.90;;;;;;;2.28;100.00;163005.34;5016180;28;20049;-68
2022/02/02 14:36:21;;;;;;;1999.90;999.90;;;;;;;2.49;100.00;163060.09;5020934;28;20410;-67
2022/02/02 14:38:57;;;;;;;1999.90;999.90;;;;;;;2.73;100.00;163125.88;5015494;28;20053;-69
2022/02/02 14:44:25;;;;;;;1999.90;999.90;;;;;;;2.53;100.00;163072.47;5015985;28;20740;-68
2022/02/02 14:47:13;;;;;;;1999.90;999.90;;;;;;;2.90;100.00;163169.69;5017273;28;20139;-68
2022/02/02 14:50:00;;;;;;;1999.90;999.90;;;;;;;2.91;100.00;163172.47;5018724;28;20076;-69
2022/02/02 15:23:48;;;;;;;1999.90;999.90;;;;;;;2.82;100.00;163150.50;5011940;28;20321;-66
2022/02/02 15:27:56;;;;;;;1999.90;999.90;;;;;;;2.58;100.00;163084.78;5020320;28;20045;-67
2022/02/02 15:32:52;;;;;;;1999.90;999.90;;;;;;;2.43;100.00;163045.06;5024548;28;20732;-66
2022/02/02 15:35:20;;;;;;;1999.90;999.90;;;;;;;2.37;100.00;163028.66;5021770;28;20057;-67
2022/02/02 15:40:16;;;;;;;1999.90;999.90;;;;;;;2.27;100.00;163002.59;5022685;28;20108;-67
2022/02/02 15:42:55;;;;;;;;;;;;;;;2.44;100.00;163049.19;5017071;28;20055;-68
2022/02/02 15:58:56;;;;;;;1999.90;999.90;;;;;;;2.49;100.00;163060.09;5019389;28;20095;-68
2022/02/02 16:03:54;;;;;;;1999.90;999.90;;;;;;;2.91;100.00;163172.47;5021467;28;20075;-68
2022/02/02 16:06:24;;;;;;;1999.90;999.90;;;;;;;2.80;100.00;163143.69;5017175;28;20096;-68
2022/02/02 16:09:00;;;;;;;1999.90;999.90;;;;;;;2.81;100.00;163147.81;5017614;28;20054;-68
2022/02/02 16:11:30;;;;;;;1999.90;999.90;;;;;;;2.76;100.00;163134.09;5018211;28;20072;-68
2022/02/02 16:14:04;;;;;;;1999.90;999.90;;;;;;;2.73;100.00;163125.88;5025145;28;20116;-68
2022/02/02 16:19:08;;;;;;;1999.90;999.90;;;;;;;2.88;100.00;163165.59;5020155;28;20060;-68
2022/02/02 16:24:49;;;;;;;1999.90;999.90;;;;;;;2.77;100.00;163136.84;5021526;28;20136;-68
2022/02/02 16:35:37;;;;;;;1999.90;999.90;;;;;;;3.49;100.00;163328.66;5015021;28;20107;-68
2022/02/02 16:38:06;;;;;;;1999.90;999.90;;;;;;;3.44;100.00;163314.97;5021041;28;20054;-68
2022/02/02 16:40:36;;;;;;;1999.90;999.90;;;;;;;3.88;100.00;163432.88;5009059;28;20136;-68
2022/02/02 16:45:35;;;;;;;1999.90;999.90;;;;;;;3.20;100.00;163249.16;5016164;28;20049;-68
2022/02/02 16:48:02;;;;;;;1999.90;999.90;;;;;;;3.38;100.00;163298.53;5013720;28;20410;-68
2022/02/02 16:50:33;;;;;;;1999.90;999.90;;;;;;;3.43;100.00;163310.88;5018317;28;20050;-68
2022/02/02 16:53:06;;;;;;;1999.90;999.90;;;;;;;3.34;100.00;163287.56;5014490;28;20162;-68
2022/02/02 17:31:12;;;;;;;1999.90;999.90;;;;;;;2.64;100.00;163102.56;5019484;28;20046;-68
2022/02/02 17:33:50;;;;;;;1999.90;999.90;;;;;;;2.78;100.00;163138.19;5017218;28;20054;-68
2022/02/02 17:36:25;;;;;;;1999.90;999.90;;;;;;;2.51;100.00;163065.59;5022515;28;20057;-68
2022/02/02 17:38:59;;;;;;;1999.90;999.90;;;;;;;2.61;100.00;163093.00;5027812;28;20053;-68
2022/02/02 17:44:21;;;;;;;1999.90;999.90;;;;;;;3.03;100.00;163205.31;5024118;28;20122;-68
2022/02/02 17:59:01;;;;;;;1999.90;999.90;;;;;;;2.16;100.00;162973.88;5016486;28;20069;-70
2022/02/02 18:19:42;;;;;;;1999.90;999.90;;;;;;;1.88;100.00;162898.56;5015365;28;20050;-69
2022/02/02 18:22:13;;;;;;;1999.90;999.90;;;;;;;2.05;100.00;162945.06;5019216;28;20045;-69
2022/02/02 18:24:58;;;;;;;1999.90;999.90;;;;;;;2.26;100.00;162999.84;5025208;28;20081;-69
2022/02/02 18:27:34;;;;;;;1999.90;999.90;;;;;;;2.10;100.00;162958.78;5026190;28;20049;-68
2022/02/02 18:30:20;;;;;;;1999.90;999.90;;;;;;;2.49;100.00;163060.09;5013692;28;20149;-69
2022/02/02 18:35:18;;;;;;;1999.90;999.90;;;;;;;2.37;100.00;163030.00;5017637;28;20462;-68
2022/02/02 18:44:00;;;;;;;1999.90;999.90;;;;;;;2.13;100.00;162964.25;5018133;28;20041;-68
2022/02/02 18:46:23;;;;;;;1999.90;999.90;;;;;;;2.04;100.00;162942.38;5013939;28;20054;-67
2022/02/02 18:49:24;;;;;;;1999.90;999.90;;;;;;;2.11;100.00;162961.53;5012369;28;20077;-68
2022/02/02 19:00:33;;;;;;;1999.90;999.90;;;;;;;2.57;100.00;163083.38;5017741;28;20124;-68
2022/02/02 19:40:01;;;;;;;1999.90;999.90;;;;;;;2.25;100.00;162998.50;5016214;28;20049;-67
2022/02/02 19:56:23;;;;;;;1999.90;999.90;;;;;;;2.55;100.00;163076.56;5009358;28;20057;-68
2022/02/02 20:09:56;;;;;;;1999.90;999.90;;;;;;;2.58;100.00;163084.78;5012194;28;20054;-68
2022/02/02 20:12:27;;;;;;;1999.90;999.90;;;;;;;2.46;100.00;163054.63;5014608;28;20045;-68
2022/02/02 20:14:53;;;;;;;1999.90;999.90;;;;;;;2.56;100.00;163080.69;5012067;28;20181;-68
2022/02/02 20:17:23;;;;;;;1999.90;999.90;;;;;;;2.60;100.00;163090.25;5016334;28;20050;-69
2022/02/02 20:19:55;;;;;;;1999.90;999.90;;;;;;;1.99;100.00;162928.66;5011541;28;20053;-69
2022/02/02 20:22:24;;;;;;;1999.90;999.90;;;;;;;1.97;100.00;162921.84;5011504;28;20053;-70
2022/02/02 20:24:56;;;;;;;1999.90;999.90;;;;;;;1.32;100.00;162749.34;5012252;28;20045;-69
2022/02/02 20:27:23;;;;;;;1999.90;999.90;;;;;;;1.27;100.00;162735.69;5016081;28;20057;-69
2022/02/02 20:29:49;;;;;;;1999.90;999.90;;;;;;;1.61;100.00;162827.38;5022772;28;20135;-70
2022/02/02 20:32:18;;;;;;;1999.90;999.90;;;;;;;1.31;100.00;162748.00;5016389;28;20145;-70
2022/02/02 20:34:44;;;;;;;1999.90;999.90;;;;;;;1.89;100.00;162901.25;5012382;28;20112;-69
2022/02/02 20:37:14;;;;;;;1999.90;999.90;;;;;;;1.80;100.00;162876.63;5012543;28;20057;-68
2022/02/02 20:39:56;;;;;;;1999.90;999.90;;;;;;;1.29;100.00;162742.50;5015017;28;20045;-68
2022/02/02 20:42:52;;;;;;;;;;;;;;;1.49;100.00;162794.50;5020540;28;20046;-68
2022/02/02 21:13:41;;;;;;;1999.90;999.90;;;;;;;1.49;100.00;162795.91;5016623;28;20041;-67
2022/02/02 21:14:47;;;;;;;1999.90;999.90;;;;;;;1.84;100.00;162888.94;5010527;28;20053;-67